Time;durP1;ratioP1;P1;durP2;ratioP2;P2;SDS_P1;SDS_P2;PMS_P1;PMS_P2;Temp;Humidity;BMP_temperature;BMP_pressure;BME280_temperature;BME280_humidity;BME280_pressure;Samples;Min_cycle;Max_cycle;Signal;HPM_P1;HPM_P2
2021/07/13 00:00:41;;;;;;;8.20;7.50;;;21.50;99.90;;;;;;4995925;28;20196;-73
2021/07/13 00:03:07;;;;;;;8.80;8.00;;;21.70;99.90;;;;;;5005111;28;20216;-74
2021/07/13 00:05:35;;;;;;;7.83;6.90;;;22.10;99.90;;;;;;4997177;28;20549;-73
2021/07/13 00:08:01;;;;;;;8.60;7.50;;;22.20;99.90;;;;;;4999100;28;20443;-75
2021/07/13 00:10:29;;;;;;;8.77;7.97;;;22.30;99.90;;;;;;4991505;28;20444;-74
2021/07/13 00:12:55;;;;;;;7.70;7.00;;;22.10;99.90;;;;;;5000842;28;20221;-74
2021/07/13 00:15:27;;;;;;;7.87;6.40;;;21.90;99.90;;;;;;4992195;28;20456;-74
2021/07/13 00:17:55;;;;;;;8.80;7.87;;;22.10;99.90;;;;;;4992820;28;20591;-75
2021/07/13 00:20:22;;;;;;;9.33;7.90;;;22.20;99.90;;;;;;4995906;28;20444;-75
2021/07/13 00:22:48;;;;;;;8.03;7.10;;;22.10;99.90;;;;;;4996613;28;20449;-75
2021/07/13 00:25:15;;;;;;;8.13;7.37;;;22.00;99.90;;;;;;4993229;28;20784;-75
2021/07/13 00:27:42;;;;;;;7.77;7.07;;;21.80;99.90;;;;;;4992398;28;20472;-74
2021/07/13 00:30:10;;;;;;;8.17;7.43;;;22.00;99.90;;;;;;4993571;28;20528;-74
2021/07/13 00:32:36;;;;;;;14.90;7.30;;;22.00;99.90;;;;;;4979768;28;20476;-75
2021/07/13 00:35:03;;;;;;;9.07;8.20;;;21.80;99.90;;;;;;4996292;28;20417;-75
2021/07/13 00:37:28;;;;;;;10.90;8.20;;;21.60;99.90;;;;;;4996084;28;20216;-75
2021/07/13 00:39:54;;;;;;;8.50;7.73;;;21.40;99.90;;;;;;4992651;28;20970;-75
2021/07/13 00:42:20;;;;;;;9.53;7.70;;;21.60;99.90;;;;;;4993980;28;20342;-74
2021/07/13 00:44:46;;;;;;;9.03;7.10;;;21.50;99.90;;;;;;4995727;28;20253;-74
2021/07/13 00:47:19;;;;;;;8.23;7.40;;;21.40;99.90;;;;;;4991037;28;20205;-74
2021/07/13 00:49:46;;;;;;;7.83;7.03;;;21.50;99.90;;;;;;4995315;28;20440;-75
2021/07/13 00:52:13;;;;;;;9.93;8.30;;;21.60;99.90;;;;;;4994498;28;20463;-74
2021/07/13 00:54:40;;;;;;;7.57;6.87;;;21.50;99.90;;;;;;4979590;28;20461;-74
2021/07/13 00:57:10;;;;;;;9.00;8.10;;;21.50;99.90;;;;;;4995347;28;20520;-73
2021/07/13 00:59:37;;;;;;;8.27;7.40;;;21.70;99.90;;;;;;4996181;28;20428;-74
2021/07/13 01:02:04;;;;;;;9.30;8.40;;;21.70;99.90;;;;;;4992340;28;20441;-73
2021/07/13 01:04:31;;;;;;;9.77;8.77;;;21.50;99.90;;;;;;4998215;28;20978;-74
2021/07/13 01:07:17;;;;;;;9.93;7.83;;;21.50;99.90;;;;;;4994838;28;20467;-74
2021/07/13 01:10:00;;;;;;;8.77;7.87;;;21.70;99.90;;;;;;4999912;28;20428;-74
2021/07/13 01:12:54;;;;;;;8.63;7.80;;;21.80;99.90;;;;;;4986952;28;20481;-74
2021/07/13 01:15:21;;;;;;;8.57;7.20;;;21.80;99.90;;;;;;5022477;28;20440;-74
2021/07/13 01:18:08;;;;;;;8.53;7.70;;;21.70;99.90;;;;;;5023409;28;20487;-72
2021/07/13 01:21:01;;;;;;;9.10;8.30;;;21.70;99.90;;;;;;5022191;28;20437;-73
2021/07/13 01:23:45;;;;;;;10.13;7.23;;;21.90;99.90;;;;;;5019307;28;20452;-74
2021/07/13 01:26:39;;;;;;;7.80;7.10;;;21.90;99.90;;;;;;4994290;28;20456;-74
2021/07/13 01:29:11;;;;;;;8.23;7.53;;;22.00;99.90;;;;;;4993143;28;20579;-74
2021/07/13 01:31:39;;;;;;;9.90;8.90;;;21.80;99.90;;;;;;4995380;28;20420;-74
2021/07/13 01:34:18;;;;;;;8.03;7.23;;;21.70;99.90;;;;;;4994369;28;20492;-73
2021/07/13 01:36:48;;;;;;;9.27;8.47;;;21.60;99.90;;;;;;4985427;28;20528;-74
2021/07/13 01:39:16;;;;;;;10.27;9.13;;;21.70;99.90;;;;;;4994998;28;20474;-74
2021/07/13 01:41:42;;;;;;;9.10;7.77;;;21.60;99.90;;;;;;4993690;28;20507;-74
2021/07/13 01:44:10;;;;;;;10.30;9.40;;;21.50;99.90;;;;;;4989865;28;20822;-73
2021/07/13 01:46:38;;;;;;;9.67;8.50;;;21.50;99.90;;;;;;4992060;28;20571;-75
2021/07/13 01:49:04;;;;;;;11.40;8.97;;;21.50;99.90;;;;;;4977351;28;20453;-72
2021/07/13 01:51:31;;;;;;;9.00;8.07;;;21.20;99.90;;;;;;4991486;28;20495;-73
2021/07/13 01:54:04;;;;;;;12.30;9.63;;;21.20;99.90;;;;;;4992334;28;20479;-74
2021/07/13 01:56:30;;;;;;;10.17;9.00;;;21.10;99.90;;;;;;4994198;28;20458;-75
2021/07/13 01:58:57;;;;;;;10.30;9.30;;;21.10;99.90;;;;;;4987204;28;20975;-74
2021/07/13 02:01:24;;;;;;;9.50;8.23;;;21.10;99.90;;;;;;4995504;28;20432;-74
2021/07/13 02:03:55;;;;;;;11.20;9.73;;;21.00;99.90;;;;;;4991319;28;21035;-75
2021/07/13 02:06:25;;;;;;;9.60;8.43;;;21.10;99.90;;;;;;4990965;28;20456;-74
2021/07/13 02:08:53;;;;;;;14.00;9.17;;;21.20;99.90;;;;;;4990345;28;20468;-74
2021/07/13 02:11:20;;;;;;;12.53;9.50;;;21.20;99.90;;;;;;4995559;28;20666;-74
2021/07/13 02:13:46;;;;;;;10.30;9.20;;;21.10;99.90;;;;;;4994618;28;20486;-74
2021/07/13 02:16:11;;;;;;;15.03;10.30;;;21.00;99.90;;;;;;4992322;28;20441;-73
2021/07/13 02:18:37;;;;;;;12.87;9.77;;;21.00;99.90;;;;;;4994670;28;20443;-74
2021/07/13 02:21:09;;;;;;;10.17;9.27;;;21.10;99.90;;;;;;4987602;28;20188;-73
2021/07/13 02:23:36;;;;;;;10.50;9.40;;;21.30;99.90;;;;;;4994538;28;20209;-75
2021/07/13 02:26:04;;;;;;;10.40;9.40;;;21.20;99.90;;;;;;4992342;28;20448;-74
2021/07/13 02:28:38;;;;;;;9.70;8.80;;;21.30;99.90;;;;;;4992789;28;20528;-75
2021/07/13 02:31:13;;;;;;;8.77;7.97;;;21.50;99.90;;;;;;4992262;28;20814;-73
2021/07/13 02:33:57;;;;;;;9.17;8.20;;;21.70;99.90;;;;;;4992327;28;20527;-75
2021/07/13 02:36:27;;;;;;;8.80;8.03;;;21.60;99.90;;;;;;4995012;28;20439;-75
2021/07/13 02:38:56;;;;;;;8.90;8.00;;;21.70;99.90;;;;;;4994980;28;20471;-74
2021/07/13 02:41:22;;;;;;;10.37;7.90;;;22.00;99.90;;;;;;4995388;28;20432;-74
2021/07/13 02:43:48;;;;;;;7.40;6.70;;;21.80;99.90;;;;;;4976405;28;20464;-75
2021/07/13 02:46:15;;;;;;;9.50;8.50;;;22.00;99.90;;;;;;4999133;28;20451;-75
2021/07/13 02:48:42;;;;;;;8.43;7.63;;;21.90;99.90;;;;;;4995537;28;20530;-75
2021/07/13 02:51:10;;;;;;;8.97;7.53;;;21.40;99.90;;;;;;4993278;28;20453;-73
2021/07/13 02:53:37;;;;;;;9.53;8.63;;;21.20;99.90;;;;;;4996582;28;21032;-73
2021/07/13 02:56:06;;;;;;;7.33;6.73;;;21.30;99.90;;;;;;4995615;28;20455;-74
2021/07/13 02:58:33;;;;;;;8.13;7.33;;;21.50;99.90;;;;;;4994808;28;21204;-73
2021/07/13 03:00:59;;;;;;;7.80;7.10;;;21.60;99.90;;;;;;4996275;28;20835;-75
2021/07/13 03:03:26;;;;;;;9.50;7.90;;;21.80;99.90;;;;;;4997295;28;20875;-75
2021/07/13 03:05:53;;;;;;;7.77;6.93;;;21.70;99.90;;;;;;4998532;28;20444;-74
2021/07/13 03:08:23;;;;;;;8.73;7.93;;;21.80;99.90;;;;;;4995612;28;20515;-75
2021/07/13 03:10:51;;;;;;;8.83;7.43;;;21.70;99.90;;;;;;4996668;28;20544;-75
2021/07/13 03:13:21;;;;;;;8.97;8.00;;;21.70;99.90;;;;;;4981514;28;20480;-76
2021/07/13 03:15:49;;;;;;;8.83;7.90;;;21.90;99.90;;;;;;4996610;28;20436;-74
2021/07/13 03:18:15;;;;;;;9.07;8.20;;;21.80;99.90;;;;;;4997059;28;20798;-76
2021/07/13 03:20:43;;;;;;;8.80;8.03;;;21.40;99.90;;;;;;4996560;28;20433;-74
2021/07/13 03:23:10;;;;;;;8.13;7.33;;;21.00;99.90;;;;;;4997596;28;21135;-74
2021/07/13 03:25:38;;;;;;;9.20;7.60;;;21.30;99.90;;;;;;4995183;28;20440;-72
2021/07/13 03:28:05;;;;;;;10.17;8.00;;;21.50;99.90;;;;;;4984912;28;20432;-73
2021/07/13 03:30:31;;;;;;;8.47;7.70;;;21.30;99.90;;;;;;4997762;28;20981;-74
2021/07/13 03:32:59;;;;;;;8.37;7.57;;;21.30;99.90;;;;;;4994339;28;20488;-74
2021/07/13 03:35:26;;;;;;;8.80;7.67;;;21.60;99.90;;;;;;4995608;28;20540;-73
2021/07/13 03:37:53;;;;;;;12.20;8.13;;;21.70;99.90;;;;;;4996029;28;20439;-74
2021/07/13 03:40:22;;;;;;;7.13;6.43;;;21.90;99.90;;;;;;4994590;28;20900;-74
2021/07/13 03:42:49;;;;;;;6.83;6.13;;;22.00;99.90;;;;;;4998787;28;20826;-73
2021/07/13 03:45:18;;;;;;;8.90;7.37;;;22.00;99.90;;;;;;4995698;28;20452;-73
2021/07/13 03:47:52;;;;;;;7.90;7.10;;;22.00;99.90;;;;;;4991399;28;20471;-74
2021/07/13 03:50:24;;;;;;;8.17;7.40;;;22.10;99.90;;;;;;4993115;28;20451;-74
2021/07/13 03:52:50;;;;;;;8.77;7.97;;;21.90;99.90;;;;;;4994266;28;20484;-73
2021/07/13 03:55:15;;;;;;;9.17;7.83;;;21.80;99.90;;;;;;4976136;28;20476;-74
2021/07/13 03:57:41;;;;;;;9.30;7.80;;;21.90;99.90;;;;;;4995716;28;20925;-74
2021/07/13 04:00:11;;;;;;;9.60;8.70;;;21.90;99.90;;;;;;4996627;28;20190;-74
2021/07/13 04:02:37;;;;;;;8.00;7.23;;;21.50;99.90;;;;;;4991980;28;20927;-73
2021/07/13 04:05:04;;;;;;;8.63;7.87;;;21.70;99.90;;;;;;4993173;28;20441;-73
2021/07/13 04:07:30;;;;;;;8.00;7.20;;;21.90;99.90;;;;;;4995840;28;20197;-74
2021/07/13 04:09:56;;;;;;;7.53;6.83;;;21.70;99.90;;;;;;4993484;28;20950;-74
2021/07/13 04:12:21;;;;;;;6.97;6.20;;;21.70;99.90;;;;;;4977852;28;20221;-74
2021/07/13 04:14:47;;;;;;;7.90;6.73;;;21.70;99.90;;;;;;4997096;28;20585;-74
2021/07/13 04:17:13;;;;;;;7.60;6.90;;;21.70;99.90;;;;;;4995776;28;20618;-73
2021/07/13 04:19:39;;;;;;;9.20;7.30;;;21.60;99.90;;;;;;4991803;28;20267;-74
2021/07/13 04:22:04;;;;;;;8.90;6.70;;;21.50;99.90;;;;;;4995877;28;20232;-74
2021/07/13 04:24:30;;;;;;;7.20;6.50;;;21.40;99.90;;;;;;4995189;28;20272;-74
2021/07/13 04:26:56;;;;;;;8.07;6.57;;;21.40;99.90;;;;;;4995332;28;20228;-73
2021/07/13 04:29:21;;;;;;;7.10;6.40;;;21.40;99.90;;;;;;4992290;28;20221;-73
2021/07/13 04:31:47;;;;;;;7.27;6.57;;;21.20;99.90;;;;;;4994490;28;20247;-74
2021/07/13 04:34:13;;;;;;;7.23;6.53;;;21.00;99.90;;;;;;4995553;28;20217;-74
2021/07/13 04:36:39;;;;;;;10.57;7.80;;;20.90;99.90;;;;;;4992674;28;20191;-74
2021/07/13 04:39:06;;;;;;;8.10;7.30;;;20.80;99.90;;;;;;4991019;28;20449;-74
2021/07/13 04:41:32;;;;;;;9.50;8.50;;;20.80;99.90;;;;;;4998628;28;20440;-74
2021/07/13 04:43:59;;;;;;;10.73;9.23;;;20.70;99.90;;;;;;4993789;28;20485;-73
2021/07/13 04:46:24;;;;;;;12.13;10.80;;;20.70;99.90;;;;;;4993575;28;20988;-74
2021/07/13 04:48:50;;;;;;;11.90;10.70;;;20.80;99.90;;;;;;4994064;28;20440;-74
2021/07/13 04:51:16;;;;;;;14.00;12.60;;;20.60;99.90;;;;;;4993338;28;21167;-73
2021/07/13 04:53:43;;;;;;;17.67;12.27;;;20.60;99.90;;;;;;4997387;28;20300;-74
2021/07/13 04:56:08;;;;;;;12.73;11.13;;;20.50;99.90;;;;;;4976738;28;20707;-73
2021/07/13 04:58:34;;;;;;;13.93;12.47;;;20.60;99.90;;;;;;4974674;28;20471;-74
2021/07/13 05:01:00;;;;;;;12.97;11.67;;;20.60;99.90;;;;;;4990893;28;20259;-74
2021/07/13 05:03:25;;;;;;;13.63;12.13;;;20.70;99.90;;;;;;4994918;28;20683;-74
2021/07/13 05:05:51;;;;;;;12.90;11.50;;;20.70;99.90;;;;;;4992735;28;20713;-75
2021/07/13 05:08:18;;;;;;;12.20;10.90;;;20.80;99.90;;;;;;4991208;28;20185;-74
2021/07/13 05:10:43;;;;;;;12.90;11.60;;;20.80;99.90;;;;;;4992457;28;20288;-74
2021/07/13 05:13:11;;;;;;;12.87;11.60;;;20.90;99.90;;;;;;4991544;28;20574;-74
2021/07/13 05:15:39;;;;;;;13.50;11.07;;;20.80;99.90;;;;;;4993836;28;20190;-74
2021/07/13 05:18:07;;;;;;;11.90;10.73;;;20.90;99.90;;;;;;4990389;28;20449;-74
2021/07/13 05:20:33;;;;;;;12.50;11.30;;;20.80;99.90;;;;;;4993620;28;20440;-75
2021/07/13 05:23:00;;;;;;;12.87;11.60;;;20.90;99.90;;;;;;4990545;28;20820;-74
2021/07/13 05:25:25;;;;;;;13.17;11.87;;;20.90;99.90;;;;;;4993161;28;20302;-75
2021/07/13 05:27:51;;;;;;;13.37;11.37;;;21.00;99.90;;;;;;4993639;28;20593;-76
2021/07/13 05:30:18;;;;;;;12.93;11.70;;;21.00;99.90;;;;;;4995760;28;20189;-75
2021/07/13 05:32:45;;;;;;;13.60;12.20;;;20.90;99.90;;;;;;4992348;28;20252;-74
2021/07/13 05:35:11;;;;;;;13.67;12.37;;;20.80;99.90;;;;;;4993312;28;20436;-75
2021/07/13 05:37:37;;;;;;;14.10;12.70;;;20.90;99.90;;;;;;4996326;28;21048;-75
2021/07/13 05:40:05;;;;;;;13.73;12.40;;;21.00;99.90;;;;;;4994971;28;20945;-75
2021/07/13 05:42:31;;;;;;;14.83;11.97;;;21.00;99.90;;;;;;4989810;28;20194;-75
2021/07/13 05:44:57;;;;;;;13.00;11.73;;;20.90;99.90;;;;;;4994226;28;20433;-76
2021/07/13 05:47:23;;;;;;;17.93;12.40;;;20.70;99.90;;;;;;4995737;28;20507;-73
2021/07/13 05:49:49;;;;;;;14.80;12.40;;;20.80;99.90;;;;;;4996443;28;20189;-74
2021/07/13 05:52:14;;;;;;;13.00;11.70;;;21.00;99.90;;;;;;4993368;28;20217;-74
2021/07/13 05:54:40;;;;;;;14.80;11.90;;;21.00;99.90;;;;;;4985890;28;20299;-73
2021/07/13 05:57:06;;;;;;;12.07;10.97;;;21.00;99.90;;;;;;4989386;28;20211;-74
2021/07/13 05:59:31;;;;;;;13.80;12.27;;;21.20;99.90;;;;;;4990910;28;20542;-76
2021/07/13 06:01:57;;;;;;;14.57;11.60;;;21.30;99.90;;;;;;4991625;28;20201;-75
2021/07/13 06:04:22;;;;;;;12.57;11.27;;;21.30;99.90;;;;;;4989998;28;20221;-76
2021/07/13 06:06:48;;;;;;;14.60;11.23;;;21.20;99.90;;;;;;4992804;28;20200;-74
2021/07/13 06:09:14;;;;;;;12.90;11.60;;;21.30;99.90;;;;;;4987175;28;20736;-77
2021/07/13 06:11:40;;;;;;;13.27;11.97;;;21.20;99.90;;;;;;4989782;28;20251;-74
2021/07/13 06:14:06;;;;;;;13.07;11.87;;;21.10;99.90;;;;;;4989946;28;20241;-74
2021/07/13 06:16:31;;;;;;;12.50;11.30;;;21.00;99.90;;;;;;4981907;28;20559;-74
2021/07/13 06:18:57;;;;;;;12.80;11.50;;;21.00;99.90;;;;;;4983436;28;20200;-73
2021/07/13 06:21:23;;;;;;;12.93;11.30;;;21.00;99.90;;;;;;4990893;28;20198;-73
2021/07/13 06:23:48;;;;;;;12.37;10.67;;;21.10;99.90;;;;;;4990815;28;20260;-75
2021/07/13 06:26:15;;;;;;;12.63;11.30;;;21.00;99.90;;;;;;4993022;28;20771;-74
2021/07/13 06:28:40;;;;;;;13.23;11.17;;;21.10;99.90;;;;;;4987024;28;20251;-74
2021/07/13 06:31:06;;;;;;;12.20;11.00;;;21.00;99.90;;;;;;4971318;28;20449;-74
2021/07/13 06:33:32;;;;;;;12.50;10.10;;;21.00;99.90;;;;;;4994645;28;20284;-73
2021/07/13 06:35:57;;;;;;;9.20;8.33;;;20.70;99.90;;;;;;4995291;28;20653;-75
2021/07/13 06:38:24;;;;;;;6.33;5.73;;;20.60;99.90;;;;;;4994027;28;20601;-75
2021/07/13 06:40:50;;;;;;;5.17;4.57;;;20.40;99.90;;;;;;4976909;28;20182;-75
2021/07/13 06:43:15;;;;;;;4.30;3.60;;;20.10;99.90;;;;;;4994324;28;20542;-75
2021/07/13 06:45:41;;;;;;;4.63;4.30;;;20.10;99.90;;;;;;4992578;28;20238;-73
2021/07/13 06:48:07;;;;;;;4.60;4.20;;;20.10;99.90;;;;;;5019504;28;20287;-73
2021/07/13 06:50:32;;;;;;;5.80;4.83;;;20.00;99.90;;;;;;5021255;28;20237;-73
2021/07/13 06:52:58;;;;;;;4.80;4.27;;;19.90;99.90;;;;;;5016039;28;20245;-73
2021/07/13 06:55:24;;;;;;;4.90;4.40;;;19.90;99.90;;;;;;5016758;28;20296;-74
2021/07/13 06:57:49;;;;;;;4.73;4.33;;;19.80;99.90;;;;;;4991734;28;20194;-74
2021/07/13 07:00:15;;;;;;;5.70;4.17;;;19.90;99.90;;;;;;4992284;28;20232;-74
2021/07/13 07:02:41;;;;;;;4.03;3.63;;;19.80;99.90;;;;;;4990155;28;20251;-75
2021/07/13 07:05:08;;;;;;;4.17;3.80;;;19.60;99.90;;;;;;4996893;28;20440;-75
2021/07/13 07:07:34;;;;;;;3.23;2.93;;;19.40;99.90;;;;;;4991755;28;20636;-74
2021/07/13 07:09:59;;;;;;;3.40;2.97;;;19.40;99.90;;;;;;4992049;28;20532;-74
2021/07/13 07:12:25;;;;;;;3.47;3.17;;;19.50;99.90;;;;;;4995022;28;20680;-74
2021/07/13 07:14:51;;;;;;;3.30;2.73;;;19.60;99.90;;;;;;4991703;28;20216;-74
2021/07/13 07:17:16;;;;;;;3.80;3.40;;;19.50;99.90;;;;;;4991267;28;20236;-73
2021/07/13 07:19:42;;;;;;;3.67;3.37;;;19.50;99.90;;;;;;4993728;28;20194;-75
2021/07/13 07:22:08;;;;;;;3.20;2.90;;;19.40;99.90;;;;;;4994587;28;20617;-74
2021/07/13 07:24:34;;;;;;;3.93;2.97;;;19.50;99.90;;;;;;4979194;28;20751;-75
2021/07/13 07:27:00;;;;;;;3.20;2.90;;;19.50;99.90;;;;;;4993743;28;20186;-74
2021/07/13 07:29:25;;;;;;;3.07;2.83;;;19.30;99.90;;;;;;4993276;28;20533;-75
2021/07/13 07:31:51;;;;;;;2.67;2.47;;;19.30;99.90;;;;;;4999986;28;20567;-74
2021/07/13 07:34:18;;;;;;;3.43;2.87;;;19.30;99.90;;;;;;4983250;28;20308;-75
2021/07/13 07:36:44;;;;;;;3.00;2.80;;;19.20;99.90;;;;;;4995452;28;20212;-75
2021/07/13 07:39:10;;;;;;;3.90;3.40;;;19.20;99.90;;;;;;4997561;28;21072;-73
2021/07/13 07:41:36;;;;;;;4.13;3.00;;;19.20;99.90;;;;;;4998102;28;20193;-73
2021/07/13 07:44:02;;;;;;;3.10;2.80;;;19.00;99.90;;;;;;4993882;28;20583;-74
2021/07/13 07:46:28;;;;;;;3.23;2.80;;;19.00;99.90;;;;;;4997502;28;20193;-75
2021/07/13 07:48:53;;;;;;;2.50;2.30;;;19.00;99.90;;;;;;4994818;28;20440;-75
2021/07/13 07:51:20;;;;;;;2.77;2.20;;;19.00;99.90;;;;;;4994515;28;20199;-75
2021/07/13 07:53:45;;;;;;;2.53;2.00;;;19.10;99.90;;;;;;4995511;28;20217;-76
2021/07/13 07:56:11;;;;;;;2.63;2.30;;;19.00;99.90;;;;;;4998048;28;20439;-74
2021/07/13 07:58:38;;;;;;;3.13;2.10;;;19.00;99.90;;;;;;4991631;28;20205;-76
2021/07/13 08:01:03;;;;;;;2.27;2.07;;;19.00;99.90;;;;;;4995613;28;20447;-75
2021/07/13 08:03:29;;;;;;;2.23;1.97;;;19.00;99.90;;;;;;4992980;28;20621;-75
2021/07/13 08:05:55;;;;;;;2.67;1.77;;;18.90;99.90;;;;;;4989205;28;20189;-74
2021/07/13 08:08:22;;;;;;;2.17;1.97;;;18.90;99.90;;;;;;4994006;28;20193;-76
2021/07/13 08:10:48;;;;;;;2.00;1.80;;;18.80;99.90;;;;;;4994929;28;20464;-74
2021/07/13 08:13:14;;;;;;;1.73;1.63;;;18.70;99.90;;;;;;4992058;28;20927;-74
2021/07/13 08:15:39;;;;;;;1.63;1.53;;;18.50;99.90;;;;;;4994509;28;20440;-74
2021/07/13 08:18:05;;;;;;;2.37;1.37;;;18.40;99.90;;;;;;4993958;28;20528;-76
2021/07/13 08:20:31;;;;;;;1.80;1.40;;;18.30;99.90;;;;;;4992933;28;20255;-76
2021/07/13 08:22:56;;;;;;;1.37;1.27;;;18.10;99.90;;;;;;4975304;28;20249;-73
2021/07/13 08:25:22;;;;;;;3.80;1.30;;;17.90;99.90;;;;;;4993985;28;20209;-73
2021/07/13 08:27:49;;;;;;;2.90;1.80;;;17.70;99.90;;;;;;4991928;28;20198;-76
2021/07/13 08:30:16;;;;;;;1.63;1.50;;;17.60;99.90;;;;;;4994682;28;20672;-74
2021/07/13 08:32:42;;;;;;;2.93;1.60;;;17.50;99.90;;;;;;4991019;28;20434;-76
2021/07/13 08:35:08;;;;;;;1.53;1.20;;;17.50;99.90;;;;;;4989711;28;20464;-74
2021/07/13 08:37:35;;;;;;;2.00;1.40;;;17.40;99.90;;;;;;4997757;28;20455;-76
2021/07/13 08:40:06;;;;;;;2.50;1.53;;;17.30;99.90;;;;;;4992484;28;20440;-75
2021/07/13 08:42:40;;;;;;;6.03;1.50;;;17.20;99.90;;;;;;4995659;28;20483;-76
2021/07/13 08:45:11;;;;;;;1.80;1.60;;;17.30;99.90;;;;;;4995733;28;20536;-74
2021/07/13 08:47:38;;;;;;;2.00;1.30;;;17.20;99.90;;;;;;4996896;28;20444;-76
2021/07/13 08:50:05;;;;;;;2.17;1.73;;;17.10;99.90;;;;;;4986233;28;20441;-77
2021/07/13 08:52:32;;;;;;;1.93;1.60;;;17.10;99.90;;;;;;4995031;28;20455;-77
2021/07/13 08:54:58;;;;;;;1.67;1.50;;;17.20;99.90;;;;;;4993692;28;20527;-77
2021/07/13 08:57:24;;;;;;;1.70;1.50;;;17.20;99.90;;;;;;4995417;28;20432;-77
2021/07/13 08:59:51;;;;;;;2.33;2.00;;;17.00;99.90;;;;;;4995979;28;20511;-76
2021/07/13 09:02:16;;;;;;;1.70;1.50;;;17.00;99.90;;;;;;4993648;28;20469;-77
2021/07/13 09:04:43;;;;;;;2.60;1.93;;;16.90;99.90;;;;;;4982788;28;20463;-77
2021/07/13 09:07:09;;;;;;;1.70;1.60;;;16.80;99.90;;;;;;4979995;28;20188;-76
2021/07/13 09:09:40;;;;;;;2.00;1.80;;;16.80;99.90;;;;;;4980438;28;20440;-74
2021/07/13 09:12:20;;;;;;;2.27;1.47;;;16.80;99.90;;;;;;4979252;28;20449;-76
2021/07/13 09:14:56;;;;;;;2.80;2.00;;;16.80;99.90;;;;;;4996347;28;20464;-73
2021/07/13 09:17:32;;;;;;;1.67;1.57;;;16.80;99.90;;;;;;4993691;28;21014;-73
2021/07/13 09:20:12;;;;;;;3.80;1.60;;;16.70;99.90;;;;;;4990817;28;20482;-76
2021/07/13 09:23:06;;;;;;;1.73;1.40;;;16.60;99.90;;;;;;4994011;28;20499;-76
2021/07/13 09:25:50;;;;;;;1.90;1.60;;;16.60;99.90;;;;;;4986395;28;20926;-76
2021/07/13 09:28:21;;;;;;;1.50;1.40;;;16.60;99.90;;;;;;4989345;28;20455;-77
2021/07/13 09:30:54;;;;;;;3.17;1.40;;;16.50;99.90;;;;;;4983385;28;20440;-73
2021/07/13 09:33:33;;;;;;;2.00;1.50;;;16.50;99.90;;;;;;4994122;28;20982;-77
2021/07/13 09:36:09;;;;;;;2.30;1.80;;;16.40;99.90;;;;;;4989946;28;20463;-74
2021/07/13 09:38:37;;;;;;;1.60;1.37;;;16.40;99.90;;;;;;4991922;28;20448;-76
2021/07/13 09:41:18;;;;;;;1.40;1.30;;;16.40;99.90;;;;;;4992582;28;20433;-74
2021/07/13 09:43:45;;;;;;;1.90;1.70;;;16.40;99.90;;;;;;4992947;28;21065;-75
2021/07/13 09:46:46;;;;;;;1.80;1.50;;;16.30;99.90;;;;;;4991332;28;21234;-77
2021/07/13 09:49:23;;;;;;;1.60;1.50;;;16.40;99.90;;;;;;4991317;28;20432;-75
2021/07/13 09:51:56;;;;;;;2.40;1.50;;;16.40;99.90;;;;;;4996456;28;20855;-74
2021/07/13 09:54:34;;;;;;;1.70;1.33;;;16.40;99.90;;;;;;4988451;28;21078;-74
2021/07/13 09:57:05;;;;;;;3.00;1.30;;;16.50;99.90;;;;;;4988524;28;20424;-75
2021/07/13 09:59:31;;;;;;;1.40;1.30;;;16.50;99.90;;;;;;4991043;28;20580;-76
2021/07/13 10:01:57;;;;;;;1.50;1.23;;;16.50;99.90;;;;;;4990450;28;20502;-74
2021/07/13 10:04:23;;;;;;;2.97;1.27;;;16.50;99.90;;;;;;4993116;28;20514;-75
2021/07/13 10:06:51;;;;;;;1.20;1.10;;;16.50;99.90;;;;;;4985956;28;20428;-74
2021/07/13 10:09:20;;;;;;;1.60;1.33;;;16.50;99.90;;;;;;4986510;28;20213;-75
2021/07/13 10:11:46;;;;;;;2.00;1.40;;;16.50;99.90;;;;;;4988202;28;20572;-77
2021/07/13 10:14:12;;;;;;;1.97;1.30;;;16.30;99.90;;;;;;4987239;28;20494;-74
2021/07/13 10:16:38;;;;;;;1.83;1.30;;;16.30;99.90;;;;;;4992414;28;20440;-76
2021/07/13 10:19:08;;;;;;;1.20;1.10;;;16.20;99.90;;;;;;4987587;28;20429;-73
2021/07/13 10:21:35;;;;;;;1.47;1.10;;;16.30;99.90;;;;;;4988258;28;21413;-76
2021/07/13 10:24:02;;;;;;;2.07;1.30;;;16.30;99.90;;;;;;4976233;28;20485;-76
2021/07/13 10:26:48;;;;;;;1.87;1.30;;;16.30;99.90;;;;;;4989960;28;20546;-75
2021/07/13 10:29:32;;;;;;;2.03;1.23;;;16.30;99.90;;;;;;4989122;28;20478;-75
2021/07/13 10:32:02;;;;;;;2.33;1.20;;;16.30;99.90;;;;;;4993523;28;20460;-75
2021/07/13 10:34:48;;;;;;;1.83;1.20;;;16.40;99.90;;;;;;4988865;28;21442;-76
2021/07/13 10:37:27;;;;;;;6.20;1.20;;;16.40;99.90;;;;;;4976431;28;20456;-77
2021/07/13 10:39:58;;;;;;;1.40;1.30;;;16.40;99.90;;;;;;4988087;28;20425;-74
2021/07/13 10:42:42;;;;;;;2.33;1.40;;;16.40;99.90;;;;;;4990154;28;20469;-76
2021/07/13 10:45:35;;;;;;;1.30;1.10;;;16.30;99.90;;;;;;4987975;28;20994;-75
2021/07/13 10:48:30;;;;;;;1.80;1.33;;;16.30;99.90;;;;;;4995163;28;20412;-73
2021/07/13 10:50:59;;;;;;;1.40;1.30;;;16.40;99.90;;;;;;4986309;28;20524;-76
2021/07/13 10:53:41;;;;;;;1.50;1.20;;;16.40;99.90;;;;;;4987962;28;20512;-75
2021/07/13 10:56:36;;;;;;;1.50;1.30;;;16.60;99.90;;;;;;4994184;28;20437;-75
2021/07/13 10:59:21;;;;;;;1.20;1.10;;;16.70;99.90;;;;;;4974342;28;20452;-73
2021/07/13 11:02:07;;;;;;;1.50;1.30;;;16.70;99.90;;;;;;4989814;28;20451;-73
2021/07/13 11:04:33;;;;;;;1.30;1.20;;;16.70;99.90;;;;;;4992706;28;20465;-73
2021/07/13 11:06:58;;;;;;;1.83;1.30;;;16.70;99.90;;;;;;4992732;28;20448;-74
2021/07/13 11:09:29;;;;;;;2.30;1.47;;;16.80;99.90;;;;;;4993536;28;20592;-74
2021/07/13 11:12:14;;;;;;;1.20;1.10;;;16.80;99.90;;;;;;4992863;28;20197;-73
2021/07/13 11:14:51;;;;;;;2.70;1.30;;;16.80;99.90;;;;;;4995405;28;20474;-75
2021/07/13 11:17:22;;;;;;;1.40;1.30;;;16.80;99.90;;;;;;4996957;28;20424;-75
2021/07/13 11:19:48;;;;;;;1.20;1.07;;;16.70;99.90;;;;;;4992386;28;20993;-75
2021/07/13 11:22:18;;;;;;;1.77;1.40;;;16.70;99.90;;;;;;5001885;28;20459;-78
2021/07/13 11:24:43;;;;;;;1.23;1.13;;;16.70;99.90;;;;;;4996110;28;20461;-74
2021/07/13 11:27:09;;;;;;;2.37;1.30;;;16.70;99.90;;;;;;4994898;28;20803;-74
2021/07/13 11:29:35;;;;;;;1.60;1.40;;;17.00;99.90;;;;;;4994442;28;20652;-76
2021/07/13 11:32:03;;;;;;;1.73;1.53;;;17.00;99.90;;;;;;4995032;28;20185;-74
2021/07/13 11:34:37;;;;;;;5.63;1.80;;;17.10;99.90;;;;;;4990469;28;20208;-74
2021/07/13 11:37:05;;;;;;;3.30;1.30;;;17.10;99.90;;;;;;4992194;28;20428;-75
2021/07/13 11:39:38;;;;;;;3.20;1.67;;;17.00;99.90;;;;;;4996812;28;20457;-73
2021/07/13 11:42:08;;;;;;;1.30;1.20;;;17.10;99.90;;;;;;4991835;28;21014;-75
2021/07/13 11:44:38;;;;;;;1.40;1.30;;;17.10;99.90;;;;;;4973350;28;20543;-75
2021/07/13 11:47:11;;;;;;;1.80;1.40;;;17.10;99.90;;;;;;4992885;28;20942;-75
2021/07/13 11:49:38;;;;;;;1.90;1.50;;;17.20;99.90;;;;;;4990979;28;20878;-74
2021/07/13 11:52:14;;;;;;;1.50;1.40;;;17.20;99.90;;;;;;4992935;28;20433;-73
2021/07/13 11:54:53;;;;;;;2.93;1.53;;;17.20;99.90;;;;;;4990987;28;20455;-74
2021/07/13 11:57:19;;;;;;;2.23;1.60;;;17.30;99.90;;;;;;4991514;28;20492;-75
2021/07/13 11:59:45;;;;;;;3.33;1.63;;;17.30;99.90;;;;;;4990654;28;20494;-74
2021/07/13 12:02:11;;;;;;;2.63;1.53;;;17.40;99.90;;;;;;4993491;28;20528;-73
2021/07/13 12:04:42;;;;;;;2.70;1.47;;;17.40;99.90;;;;;;4996208;28;20964;-73
2021/07/13 12:07:08;;;;;;;2.07;1.60;;;17.40;99.90;;;;;;4994322;28;20743;-73
2021/07/13 12:09:36;;;;;;;1.80;1.60;;;17.40;99.90;;;;;;4976540;28;20432;-74
2021/07/13 12:12:12;;;;;;;3.27;1.93;;;17.30;99.90;;;;;;5002878;28;20432;-73
2021/07/13 12:14:39;;;;;;;3.20;1.60;;;17.30;99.90;;;;;;4998457;28;20459;-72
2021/07/13 12:17:06;;;;;;;1.60;1.50;;;17.30;99.90;;;;;;4999171;28;20486;-72
2021/07/13 12:19:33;;;;;;;3.77;2.13;;;17.30;99.90;;;;;;5003370;28;20855;-72
2021/07/13 12:22:00;;;;;;;1.87;1.57;;;17.30;99.90;;;;;;4971235;28;20456;-73
2021/07/13 12:24:38;;;;;;;1.80;1.50;;;17.30;99.90;;;;;;4988310;28;20471;-75
2021/07/13 12:27:07;;;;;;;3.00;2.00;;;17.40;99.90;;;;;;4987287;28;20518;-74
2021/07/13 12:29:43;;;;;;;3.10;1.80;;;17.40;99.90;;;;;;4990231;28;20531;-74
2021/07/13 12:32:21;;;;;;;2.90;1.37;;;17.40;99.90;;;;;;4987143;28;20435;-73
2021/07/13 12:34:49;;;;;;;1.67;1.57;;;17.40;99.90;;;;;;4993078;28;20471;-75
2021/07/13 12:37:31;;;;;;;1.77;1.50;;;17.40;99.90;;;;;;4988209;28;20475;-72
2021/07/13 12:40:00;;;;;;;2.67;2.07;;;17.50;99.90;;;;;;4982994;28;21218;-73
2021/07/13 12:42:31;;;;;;;1.60;1.50;;;17.50;99.90;;;;;;4990003;28;20468;-75
2021/07/13 12:44:59;;;;;;;2.20;2.03;;;17.40;99.90;;;;;;4987383;28;20453;-74
2021/07/13 12:47:34;;;;;;;1.97;1.70;;;17.50;99.90;;;;;;4971756;28;21096;-74
2021/07/13 12:50:20;;;;;;;2.43;2.23;;;17.60;99.90;;;;;;4987127;28;21504;-75
2021/07/13 12:53:03;;;;;;;2.03;1.83;;;17.60;99.90;;;;;;4988087;28;20447;-73